Time;durP1;ratioP1;P1;durP2;ratioP2;P2;SDS_P1;SDS_P2;PMS_P1;PMS_P2;Temp;Humidity;BMP_temperature;BMP_pressure;BME280_temperature;BME280_humidity;BME280_pressure;Samples;Min_cycle;Max_cycle;Signal;HPM_P1;HPM_P2
2022/11/13 00:00:31;;;;;;;37.10;21.98;;;8.30;99.90;;;;;;4931112;29;20100;-96
2022/11/13 00:02:56;;;;;;;36.83;21.60;;;8.30;99.90;;;;;;4929906;29;20103;-94
2022/11/13 00:05:22;;;;;;;36.20;21.55;;;8.20;99.90;;;;;;4929386;29;20035;-93
2022/11/13 00:07:48;;;;;;;35.33;20.00;;;8.20;99.90;;;;;;4928661;29;20024;-93
2022/11/13 00:10:13;;;;;;;29.77;18.80;;;8.20;99.90;;;;;;4929870;29;20024;-94
2022/11/13 00:12:39;;;;;;;31.67;19.98;;;8.10;99.90;;;;;;4929778;29;20035;-93
2022/11/13 00:15:05;;;;;;;28.85;17.55;;;8.10;99.90;;;;;;4929798;29;20431;-94
2022/11/13 00:17:31;;;;;;;32.90;18.60;;;8.10;99.90;;;;;;4928514;29;20122;-93
2022/11/13 00:19:56;;;;;;;32.33;18.67;;;8.10;99.90;;;;;;4929175;29;20043;-93
2022/11/13 00:22:22;;;;;;;38.85;20.73;;;8.00;99.90;;;;;;4930116;29;20027;-92
2022/11/13 00:24:47;;;;;;;28.27;18.35;;;8.00;99.90;;;;;;4929975;29;20055;-93
2022/11/13 00:27:13;;;;;;;28.33;15.98;;;8.00;99.90;;;;;;4929832;29;20035;-95
2022/11/13 00:29:39;;;;;;;30.58;18.75;;;8.00;99.90;;;;;;4929277;29;20481;-93
2022/11/13 00:32:05;;;;;;;27.85;16.48;;;8.00;99.90;;;;;;4929295;29;20393;-93
2022/11/13 00:34:30;;;;;;;43.30;25.83;;;8.00;99.90;;;;;;4961355;28;20449;-93
2022/11/13 00:36:56;;;;;;;49.00;29.20;;;8.00;99.90;;;;;;4929223;29;20086;-94
2022/11/13 00:39:22;;;;;;;26.83;16.92;;;8.00;99.90;;;;;;4929119;29;20034;-93
2022/11/13 00:41:47;;;;;;;57.85;19.65;;;7.90;99.90;;;;;;4929218;29;20036;-93
2022/11/13 00:44:13;;;;;;;51.58;25.60;;;7.90;99.90;;;;;;4948493;29;20027;-94
2022/11/13 00:46:38;;;;;;;49.28;27.30;;;7.80;99.90;;;;;;4931071;29;20044;-93
2022/11/13 00:49:04;;;;;;;52.05;24.20;;;7.80;99.90;;;;;;4928765;29;20023;-92
2022/11/13 00:51:30;;;;;;;43.85;23.60;;;7.80;99.90;;;;;;4928700;29;20050;-93
2022/11/13 00:53:56;;;;;;;43.63;22.40;;;7.70;99.90;;;;;;4928073;29;20028;-93
2022/11/13 00:56:22;;;;;;;39.50;21.85;;;7.70;99.90;;;;;;4927409;29;20035;-93
2022/11/13 00:58:47;;;;;;;29.02;17.90;;;7.70;99.90;;;;;;4928917;29;20024;-93
2022/11/13 01:01:16;;;;;;;32.80;19.33;;;7.70;99.90;;;;;;4928643;29;20401;-93
2022/11/13 01:03:42;;;;;;;41.42;23.52;;;7.80;99.90;;;;;;4928624;29;20082;-92
2022/11/13 01:06:10;;;;;;;59.50;35.90;;;7.90;99.90;;;;;;4927930;29;20051;-93
2022/11/13 01:08:36;;;;;;;46.50;23.70;;;7.90;99.90;;;;;;4928853;29;20027;-94
2022/11/13 01:11:08;;;;;;;40.83;23.55;;;7.90;99.90;;;;;;4929284;29;20473;-93
2022/11/13 01:13:33;;;;;;;36.53;21.15;;;7.80;99.90;;;;;;4928879;29;20025;-95
2022/11/13 01:16:03;;;;;;;38.38;20.88;;;7.80;99.90;;;;;;4928038;29;20043;-93
2022/11/13 01:18:29;;;;;;;36.80;21.67;;;7.80;99.90;;;;;;4928488;29;20032;-92
2022/11/13 01:21:05;;;;;;;45.67;27.30;;;7.70;99.90;;;;;;4927536;29;20070;-96
2022/11/13 01:23:31;;;;;;;47.28;26.52;;;7.70;99.90;;;;;;4928142;29;20058;-95
2022/11/13 01:26:11;;;;;;;45.65;26.55;;;7.70;99.90;;;;;;4927615;29;20050;-94
2022/11/13 01:28:38;;;;;;;37.83;22.98;;;7.70;99.90;;;;;;4928216;29;20593;-92
2022/11/13 01:31:08;;;;;;;38.88;22.60;;;7.70;99.90;;;;;;4959679;28;20047;-93
2022/11/13 01:33:34;;;;;;;33.92;20.38;;;7.80;99.90;;;;;;4960612;28;20023;-93
2022/11/13 01:36:06;;;;;;;37.92;20.92;;;7.80;99.90;;;;;;4928362;29;20146;-93
2022/11/13 01:38:32;;;;;;;30.00;19.10;;;7.80;99.90;;;;;;4927529;29;20470;-94
2022/11/13 01:40:58;;;;;;;31.45;19.10;;;7.80;99.90;;;;;;4958637;28;20462;-94
2022/11/13 01:43:33;;;;;;;29.98;18.63;;;7.80;99.90;;;;;;4926580;29;20024;-94
2022/11/13 01:45:59;;;;;;;36.10;21.52;;;7.80;99.90;;;;;;4926101;29;20106;-94
2022/11/13 01:48:39;;;;;;;30.73;17.35;;;7.80;99.90;;;;;;4926590;29;20020;-95
2022/11/13 01:51:12;;;;;;;30.43;19.40;;;7.80;99.90;;;;;;4926990;29;20386;-94
2022/11/13 01:53:42;;;;;;;31.98;19.60;;;7.80;99.90;;;;;;4923921;29;20031;-93
2022/11/13 01:56:08;;;;;;;33.75;19.60;;;7.90;99.90;;;;;;4926518;29;20044;-93
2022/11/13 01:58:34;;;;;;;36.63;19.33;;;7.90;99.90;;;;;;4927099;29;20028;-93
2022/11/13 02:01:00;;;;;;;35.00;20.15;;;8.00;99.90;;;;;;4942968;29;20027;-94
2022/11/13 02:03:26;;;;;;;33.53;19.30;;;8.00;99.90;;;;;;4926899;29;20038;-93
2022/11/13 02:05:52;;;;;;;37.60;21.50;;;8.00;99.90;;;;;;4927264;29;20528;-94
2022/11/13 02:08:18;;;;;;;36.67;20.88;;;8.00;99.90;;;;;;4922658;28;20035;-93
2022/11/13 02:10:44;;;;;;;32.53;19.42;;;8.00;99.90;;;;;;4927242;29;20130;-93
2022/11/13 02:13:11;;;;;;;34.03;20.23;;;8.00;99.90;;;;;;4928348;29;20023;-93
2022/11/13 02:15:37;;;;;;;39.60;20.88;;;8.00;99.90;;;;;;4925091;29;20030;-93
2022/11/13 02:18:03;;;;;;;40.65;20.13;;;8.00;99.90;;;;;;4926296;29;20021;-93
2022/11/13 02:20:41;;;;;;;34.28;20.65;;;8.00;99.90;;;;;;4927448;29;20023;-94
2022/11/13 02:23:15;;;;;;;37.97;21.55;;;8.00;99.90;;;;;;4945615;29;20023;-92
2022/11/13 02:25:43;;;;;;;34.67;19.92;;;8.00;99.90;;;;;;4947653;29;20070;-93
2022/11/13 02:28:09;;;;;;;29.73;16.83;;;8.10;99.90;;;;;;4954570;29;20034;-92
2022/11/13 02:30:35;;;;;;;36.70;22.17;;;8.20;99.90;;;;;;4936155;29;20067;-92
2022/11/13 02:33:01;;;;;;;36.60;20.33;;;8.20;99.90;;;;;;4930501;29;20043;-93
2022/11/13 02:35:30;;;;;;;39.30;21.30;;;8.20;99.90;;;;;;4925689;29;20035;-92
2022/11/13 02:37:59;;;;;;;39.20;20.67;;;8.20;99.90;;;;;;4926494;29;20505;-93
2022/11/13 02:40:25;;;;;;;37.13;22.13;;;8.20;99.90;;;;;;4926077;29;20114;-93
2022/11/13 02:42:51;;;;;;;37.65;20.33;;;8.20;99.90;;;;;;4931157;29;20028;-93
2022/11/13 02:45:16;;;;;;;41.45;19.83;;;8.20;99.90;;;;;;4928867;29;20043;-95
2022/11/13 02:47:42;;;;;;;36.67;20.33;;;8.20;99.90;;;;;;4926941;29;20023;-93
2022/11/13 02:50:09;;;;;;;40.38;20.85;;;8.20;99.90;;;;;;4926346;29;20230;-93
2022/11/13 02:52:35;;;;;;;34.25;20.67;;;8.20;99.90;;;;;;4926775;29;20365;-93
2022/11/13 02:55:00;;;;;;;35.53;20.83;;;8.20;99.90;;;;;;4926092;29;20047;-92
2022/11/13 02:57:26;;;;;;;33.42;20.10;;;8.20;99.90;;;;;;4926226;29;20086;-93
2022/11/13 02:59:52;;;;;;;32.50;17.80;;;8.20;99.90;;;;;;4925954;29;20031;-93
2022/11/13 03:02:17;;;;;;;31.70;18.83;;;8.30;99.90;;;;;;4925202;29;20110;-93
2022/11/13 03:04:45;;;;;;;46.25;22.50;;;8.30;99.90;;;;;;4926652;29;20019;-93
2022/11/13 03:07:12;;;;;;;36.42;19.48;;;8.30;99.90;;;;;;4942548;29;20477;-94
2022/11/13 03:09:41;;;;;;;32.60;18.67;;;8.40;99.90;;;;;;4922166;28;20027;-92
2022/11/13 03:12:08;;;;;;;32.00;19.25;;;8.40;99.90;;;;;;4957949;28;20035;-94
2022/11/13 03:14:33;;;;;;;39.70;20.27;;;8.50;99.90;;;;;;4926551;29;20028;-92
2022/11/13 03:16:59;;;;;;;37.92;20.27;;;8.50;99.90;;;;;;4957526;28;20091;-93
2022/11/13 03:19:25;;;;;;;31.92;18.58;;;8.50;99.90;;;;;;4928164;29;20023;-94
2022/11/13 03:21:50;;;;;;;41.75;20.13;;;8.60;99.90;;;;;;4931317;29;20496;-92
2022/11/13 03:24:16;;;;;;;35.47;20.02;;;8.60;99.90;;;;;;4930693;29;20020;-93
2022/11/13 03:26:42;;;;;;;34.10;19.63;;;8.60;99.90;;;;;;4930530;29;20446;-93
2022/11/13 03:29:07;;;;;;;28.48;16.13;;;8.50;99.90;;;;;;4929539;29;20019;-94
2022/11/13 03:31:33;;;;;;;36.03;19.13;;;8.50;99.90;;;;;;4929618;29;20044;-93
2022/11/13 03:33:59;;;;;;;30.85;18.45;;;8.60;99.90;;;;;;4930874;29;20028;-94
2022/11/13 03:36:24;;;;;;;31.92;17.63;;;8.60;99.90;;;;;;4929867;29;20402;-94
2022/11/13 03:38:50;;;;;;;41.30;21.60;;;8.70;99.90;;;;;;4929889;29;20437;-93
2022/11/13 03:41:16;;;;;;;44.63;21.75;;;8.70;99.90;;;;;;4928324;29;20035;-94
2022/11/13 03:43:41;;;;;;;34.28;18.67;;;8.80;99.90;;;;;;4929037;29;20028;-93
2022/11/13 03:46:08;;;;;;;37.28;20.55;;;8.80;99.90;;;;;;4928861;29;20039;-93
2022/11/13 03:48:33;;;;;;;54.72;24.27;;;8.80;99.90;;;;;;4928191;29;20123;-92
2022/11/13 03:50:59;;;;;;;66.20;28.42;;;8.90;99.90;;;;;;4928613;29;20131;-94
2022/11/13 03:53:25;;;;;;;51.17;23.17;;;9.00;99.90;;;;;;4929672;29;20020;-94
2022/11/13 03:55:51;;;;;;;50.30;22.55;;;9.10;99.90;;;;;;4929669;29;20040;-92
2022/11/13 03:58:16;;;;;;;83.35;29.95;;;9.20;99.90;;;;;;4929065;29;20071;-94
2022/11/13 04:00:43;;;;;;;95.50;32.55;;;9.30;99.90;;;;;;4961713;28;20175;-92
2022/11/13 04:03:09;;;;;;;86.35;32.22;;;9.40;99.90;;;;;;4929263;29;20055;-93
2022/11/13 04:05:35;;;;;;;80.85;30.13;;;9.50;99.90;;;;;;4927970;29;20122;-93
2022/11/13 04:08:01;;;;;;;81.05;32.40;;;9.60;99.90;;;;;;4945157;29;20614;-95
2022/11/13 04:10:27;;;;;;;83.72;29.13;;;9.60;99.90;;;;;;4928582;29;20061;-92
2022/11/13 04:12:52;;;;;;;81.15;31.20;;;9.70;99.90;;;;;;4924240;29;20076;-93
2022/11/13 04:15:18;;;;;;;97.72;32.95;;;9.70;99.90;;;;;;4929127;29;20537;-93
2022/11/13 04:17:44;;;;;;;93.57;33.28;;;9.80;99.90;;;;;;4928405;29;20055;-94
2022/11/13 04:20:10;;;;;;;114.30;36.20;;;9.90;99.90;;;;;;4927971;29;20122;-94
2022/11/13 04:22:37;;;;;;;65.05;26.98;;;9.90;99.90;;;;;;4961075;28;20110;-93
2022/11/13 04:25:03;;;;;;;59.80;25.17;;;10.00;99.90;;;;;;4929564;29;20027;-93
2022/11/13 04:27:29;;;;;;;67.10;26.13;;;9.90;99.90;;;;;;4928806;29;20027;-94
2022/11/13 04:29:54;;;;;;;63.25;23.77;;;9.80;99.90;;;;;;4928756;29;20028;-93
2022/11/13 04:32:21;;;;;;;93.43;33.22;;;9.80;99.90;;;;;;4929055;29;20024;-92
2022/11/13 04:34:47;;;;;;;79.72;30.30;;;9.80;99.90;;;;;;4928296;29;20031;-93
2022/11/13 04:37:12;;;;;;;82.95;28.55;;;9.80;99.90;;;;;;4928772;29;20019;-94
2022/11/13 04:39:38;;;;;;;99.78;31.17;;;9.90;99.90;;;;;;4960638;28;20059;-93
2022/11/13 04:44:48;;;;;;;95.28;28.58;;;10.00;99.90;;;;;;4948498;29;20090;-93
2022/11/13 04:47:14;;;;;;;104.95;29.90;;;10.10;99.90;;;;;;4928433;29;20130;-94
2022/11/13 04:49:39;;;;;;;100.70;29.77;;;10.10;99.90;;;;;;4928777;29;20027;-94
2022/11/13 04:52:05;;;;;;;104.80;28.88;;;10.20;99.90;;;;;;4928752;29;20536;-92
2022/11/13 04:54:31;;;;;;;95.78;28.38;;;10.20;99.90;;;;;;4927153;29;20034;-96
2022/11/13 04:56:56;;;;;;;93.13;28.42;;;10.20;99.90;;;;;;4927908;29;20034;-93
2022/11/13 04:59:23;;;;;;;109.22;29.73;;;10.30;99.90;;;;;;4927369;29;20028;-93
2022/11/13 05:01:49;;;;;;;90.70;28.50;;;10.30;99.90;;;;;;4943954;29;20051;-95
2022/11/13 05:04:15;;;;;;;97.55;28.60;;;10.30;99.90;;;;;;4927410;29;20504;-94
2022/11/13 05:06:41;;;;;;;106.28;29.50;;;10.40;99.90;;;;;;4927632;29;20063;-94
2022/11/13 05:09:07;;;;;;;93.80;28.95;;;10.40;99.90;;;;;;4928364;29;20378;-94
2022/11/13 05:11:33;;;;;;;79.60;27.15;;;10.40;99.90;;;;;;4960447;28;20458;-94
2022/11/13 05:13:58;;;;;;;94.00;29.58;;;10.40;99.90;;;;;;4924227;29;20062;-96
2022/11/13 05:16:24;;;;;;;93.60;29.27;;;10.40;99.90;;;;;;4927603;29;20018;-93
2022/11/13 05:18:50;;;;;;;89.28;31.42;;;10.40;99.90;;;;;;4928336;29;20126;-96
2022/11/13 05:21:15;;;;;;;87.95;30.70;;;10.40;99.90;;;;;;4927795;29;20473;-92
2022/11/13 05:23:41;;;;;;;83.75;28.95;;;10.40;99.90;;;;;;4930539;29;20008;-93
2022/11/13 05:26:12;;;;;;;84.28;30.25;;;10.50;99.90;;;;;;4941963;29;20163;-93
2022/11/13 05:28:38;;;;;;;98.88;31.02;;;10.50;99.90;;;;;;4944052;29;20023;-93
2022/11/13 05:31:04;;;;;;;101.57;32.17;;;10.50;99.90;;;;;;4926479;29;20168;-94
2022/11/13 05:33:29;;;;;;;86.57;30.45;;;10.50;99.90;;;;;;4926686;28;20127;-94
2022/11/13 05:36:04;;;;;;;96.03;32.75;;;10.50;99.90;;;;;;4942501;29;20036;-96
2022/11/13 05:38:30;;;;;;;105.57;32.72;;;10.50;99.90;;;;;;4928329;29;20023;-94
2022/11/13 05:41:01;;;;;;;114.30;34.90;;;10.50;99.90;;;;;;4935136;29;20067;-94
2022/11/13 05:43:27;;;;;;;167.18;37.35;;;10.50;99.90;;;;;;4927590;29;20093;-94
2022/11/13 05:46:02;;;;;;;123.03;34.60;;;10.50;99.90;;;;;;4927436;29;20561;-94
2022/11/13 05:48:28;;;;;;;147.90;35.45;;;10.50;99.90;;;;;;4926610;29;20019;-94
2022/11/13 05:50:59;;;;;;;179.38;33.00;;;10.50;99.90;;;;;;4943271;29;20028;-94
2022/11/13 05:53:25;;;;;;;189.50;35.47;;;10.40;99.90;;;;;;4927480;29;20020;-93
2022/11/13 05:55:50;;;;;;;179.48;35.25;;;10.40;99.90;;;;;;4926206;29;20045;-93
2022/11/13 05:58:16;;;;;;;66.78;26.42;;;10.40;99.90;;;;;;4927436;29;20023;-93
2022/11/13 06:00:41;;;;;;;87.35;29.15;;;10.40;99.90;;;;;;4926872;29;20023;-95
2022/11/13 06:03:07;;;;;;;147.00;35.10;;;10.40;99.90;;;;;;4926497;29;20050;-94
2022/11/13 06:05:36;;;;;;;288.50;40.20;;;10.40;99.90;;;;;;4926890;29;20028;-95
2022/11/13 06:08:01;;;;;;;112.88;32.67;;;10.40;99.90;;;;;;4944106;29;20027;-94
2022/11/13 06:10:27;;;;;;;488.60;46.15;;;10.40;99.90;;;;;;4927184;29;20517;-94
2022/11/13 06:12:54;;;;;;;149.73;36.03;;;10.40;99.90;;;;;;4925699;29;20028;-93
2022/11/13 06:15:19;;;;;;;89.20;29.05;;;10.40;99.90;;;;;;4927274;29;20073;-93
2022/11/13 06:17:45;;;;;;;369.48;39.80;;;10.40;99.90;;;;;;4922859;29;20055;-95
2022/11/13 06:20:14;;;;;;;95.53;33.50;;;10.40;99.90;;;;;;4928145;29;20020;-94
2022/11/13 06:22:40;;;;;;;89.80;29.40;;;10.40;99.90;;;;;;4943457;29;20028;-94
2022/11/13 06:25:07;;;;;;;77.57;28.30;;;10.40;99.90;;;;;;4926125;29;20112;-94
2022/11/13 06:27:33;;;;;;;78.20;30.80;;;10.40;99.90;;;;;;4926597;29;20024;-92
2022/11/13 06:29:58;;;;;;;88.32;31.65;;;10.40;99.90;;;;;;4926256;29;20406;-95
2022/11/13 06:32:24;;;;;;;103.95;34.35;;;10.40;99.90;;;;;;4927363;29;20023;-94
2022/11/13 06:34:50;;;;;;;112.78;32.95;;;10.40;99.90;;;;;;4926169;29;20054;-94
2022/11/13 06:37:15;;;;;;;103.22;33.03;;;10.30;99.90;;;;;;4926169;29;20020;-94
2022/11/13 06:39:41;;;;;;;152.15;38.00;;;10.40;99.90;;;;;;4941557;29;20036;-95
2022/11/13 06:42:06;;;;;;;114.78;34.22;;;10.40;99.90;;;;;;4928362;29;20030;-94
2022/11/13 06:44:32;;;;;;;92.88;33.67;;;10.40;99.90;;;;;;4931478;29;20027;-94
2022/11/13 06:46:58;;;;;;;125.15;32.30;;;10.30;99.90;;;;;;4927194;29;20517;-93
2022/11/13 06:49:23;;;;;;;288.10;36.90;;;10.30;99.90;;;;;;4925726;29;20043;-92
2022/11/13 06:51:49;;;;;;;110.03;29.73;;;10.30;99.90;;;;;;4926786;29;20092;-95
2022/11/13 06:54:14;;;;;;;75.50;29.20;;;10.30;99.90;;;;;;4927344;29;20027;-95
2022/11/13 06:56:44;;;;;;;80.80;28.60;;;10.30;99.90;;;;;;4930992;29;20043;-94
2022/11/13 06:59:10;;;;;;;86.85;29.55;;;10.30;99.90;;;;;;4931801;29;20024;-94
2022/11/13 07:01:36;;;;;;;153.32;32.17;;;10.30;99.90;;;;;;4929874;29;20122;-94
2022/11/13 07:04:02;;;;;;;93.82;29.17;;;10.20;99.90;;;;;;4931225;29;20122;-95
2022/11/13 07:06:28;;;;;;;59.70;24.25;;;10.20;99.90;;;;;;4929951;29;20031;-94
2022/11/13 07:08:54;;;;;;;66.13;25.92;;;10.20;99.90;;;;;;4930300;29;20038;-94
2022/11/13 07:11:21;;;;;;;90.25;27.88;;;10.20;99.90;;;;;;4929068;29;20031;-94
2022/11/13 07:13:47;;;;;;;72.03;26.83;;;10.20;99.90;;;;;;4929317;29;20059;-94
2022/11/13 07:16:14;;;;;;;81.20;26.63;;;10.20;99.90;;;;;;4945909;29;20024;-95
2022/11/13 07:18:39;;;;;;;52.88;22.50;;;10.20;99.90;;;;;;4926458;29;20504;-92
2022/11/13 07:21:07;;;;;;;91.28;26.45;;;10.20;99.90;;;;;;4930252;29;20023;-94
2022/11/13 07:23:35;;;;;;;86.35;25.50;;;10.10;99.90;;;;;;4930456;29;20039;-94
2022/11/13 07:26:02;;;;;;;83.25;25.25;;;10.20;99.90;;;;;;4932064;29;20552;-93
2022/11/13 07:28:28;;;;;;;97.43;26.52;;;10.20;99.90;;;;;;4930551;29;20102;-94
2022/11/13 07:30:57;;;;;;;92.80;26.02;;;10.10;99.90;;;;;;4931913;29;20524;-94
2022/11/13 07:33:22;;;;;;;125.85;27.38;;;10.10;99.90;;;;;;4932944;28;20023;-94
2022/11/13 07:35:48;;;;;;;89.15;25.80;;;10.10;99.90;;;;;;4963226;28;20042;-93
2022/11/13 07:38:13;;;;;;;58.00;21.75;;;10.10;99.90;;;;;;4932064;29;20023;-94
2022/11/13 07:40:41;;;;;;;86.45;26.30;;;10.10;99.90;;;;;;4931536;29;20083;-96
2022/11/13 07:43:07;;;;;;;82.85;27.15;;;10.10;99.90;;;;;;4944292;29;20489;-95
2022/11/13 07:45:33;;;;;;;127.07;26.83;;;10.10;99.90;;;;;;4931876;29;20075;-95
2022/11/13 07:48:00;;;;;;;85.25;25.48;;;10.10;99.90;;;;;;4932804;29;20032;-94
2022/11/13 07:50:27;;;;;;;94.40;26.48;;;10.10;99.90;;;;;;4947148;28;20031;-94
2022/11/13 07:53:01;;;;;;;98.97;25.95;;;10.10;99.90;;;;;;4930242;29;20116;-93
2022/11/13 07:55:27;;;;;;;86.10;25.75;;;10.10;99.90;;;;;;4929474;29;20028;-94
2022/11/13 07:57:58;;;;;;;74.35;25.85;;;10.10;99.90;;;;;;4931215;29;20028;-94
2022/11/13 08:00:25;;;;;;;80.13;26.48;;;10.00;99.90;;;;;;4932700;29;20042;-95
2022/11/13 08:02:51;;;;;;;106.82;26.70;;;10.00;99.90;;;;;;4934966;29;20028;-93
2022/11/13 08:05:16;;;;;;;166.85;29.23;;;10.00;99.90;;;;;;4937570;29;20370;-95
2022/11/13 08:07:42;;;;;;;104.13;26.15;;;10.00;99.90;;;;;;4966337;28;20027;-92
2022/11/13 08:10:08;;;;;;;97.22;26.17;;;10.00;99.90;;;;;;4953153;29;20114;-93
2022/11/13 08:12:34;;;;;;;87.45;25.35;;;10.00;99.90;;;;;;4940975;29;20027;-95
2022/11/13 08:14:59;;;;;;;79.93;23.42;;;10.00;99.90;;;;;;4939658;29;20035;-94
2022/11/13 08:17:25;;;;;;;84.18;24.52;;;10.00;99.90;;;;;;4961537;28;20030;-91
2022/11/13 08:19:50;;;;;;;83.28;25.23;;;10.00;99.90;;;;;;4971764;28;20019;-94
2022/11/13 08:22:16;;;;;;;135.57;27.55;;;10.00;99.90;;;;;;4972205;29;20058;-93
2022/11/13 08:24:42;;;;;;;128.52;24.67;;;10.00;99.90;;;;;;4955299;29;20071;-94
2022/11/13 08:27:07;;;;;;;61.15;21.08;;;9.90;99.90;;;;;;4956467;28;20035;-91
2022/11/13 08:29:36;;;;;;;101.03;24.02;;;9.90;99.90;;;;;;4948612;29;20037;-95
2022/11/13 08:32:02;;;;;;;93.85;23.35;;;9.90;99.90;;;;;;4943082;29;20031;-95
2022/11/13 08:34:28;;;;;;;74.28;23.25;;;9.90;99.90;;;;;;4945476;29;20024;-94
2022/11/13 08:36:53;;;;;;;92.50;25.08;;;9.90;99.90;;;;;;4944894;29;20034;-93
2022/11/13 08:39:19;;;;;;;61.60;21.38;;;9.90;99.90;;;;;;4953592;29;20046;-94
2022/11/13 08:41:45;;;;;;;82.20;21.98;;;9.90;99.90;;;;;;4960531;29;20238;-93
2022/11/13 08:44:11;;;;;;;70.13;22.88;;;9.90;99.90;;;;;;4965951;28;20074;-94
2022/11/13 08:46:37;;;;;;;64.53;21.55;;;9.80;99.90;;;;;;4975598;28;20031;-93
2022/11/13 08:49:03;;;;;;;67.88;21.95;;;9.80;99.90;;;;;;4957896;29;20038;-91
2022/11/13 08:51:29;;;;;;;50.03;17.95;;;9.80;99.90;;;;;;4954789;29;20048;-92
2022/11/13 08:53:54;;;;;;;48.00;17.70;;;9.80;99.90;;;;;;4947842;29;20028;-91
2022/11/13 08:56:20;;;;;;;107.53;20.58;;;9.80;99.90;;;;;;4973277;28;20097;-91
2022/11/13 08:58:46;;;;;;;62.20;18.08;;;9.80;99.90;;;;;;4949096;29;20028;-91
2022/11/13 09:01:11;;;;;;;48.75;18.48;;;9.80;99.90;;;;;;4968261;28;20027;-93
2022/11/13 09:03:37;;;;;;;53.72;19.20;;;9.80;99.90;;;;;;4950972;29;20027;-93
2022/11/13 09:06:07;;;;;;;83.28;19.98;;;9.80;99.90;;;;;;4959286;29;20145;-92
2022/11/13 09:08:32;;;;;;;67.82;18.70;;;9.80;99.90;;;;;;4944248;29;20030;-94
2022/11/13 09:11:03;;;;;;;90.95;18.35;;;9.80;99.90;;;;;;4943647;29;20042;-94
2022/11/13 09:13:29;;;;;;;67.22;18.55;;;9.80;99.90;;;;;;4945092;28;20472;-94
2022/11/13 09:15:58;;;;;;;61.25;18.60;;;9.80;99.90;;;;;;4951612;29;20038;-91
2022/11/13 09:18:24;;;;;;;71.32;20.05;;;9.80;99.90;;;;;;4954126;28;20027;-94
2022/11/13 09:20:49;;;;;;;50.78;18.50;;;9.80;99.90;;;;;;4944049;29;20039;-96
2022/11/13 09:23:15;;;;;;;70.07;19.52;;;9.80;99.90;;;;;;4964079;28;20170;-94
2022/11/13 09:25:41;;;;;;;91.20;19.98;;;9.80;99.90;;;;;;4945339;29;20039;-94
2022/11/13 09:28:06;;;;;;;80.35;19.45;;;9.90;99.90;;;;;;4953885;29;20027;-94
2022/11/13 09:30:32;;;;;;;46.22;19.48;;;9.90;99.90;;;;;;4974530;28;20035;-93
2022/11/13 09:32:59;;;;;;;77.28;19.30;;;10.00;99.90;;;;;;4944956;29;20170;-96
2022/11/13 09:35:32;;;;;;;46.42;17.33;;;10.10;99.90;;;;;;4944611;29;20034;-95
2022/11/13 09:38:04;;;;;;;39.63;19.35;;;10.20;99.90;;;;;;4971908;28;20027;-96
2022/11/13 09:40:53;;;;;;;40.83;17.77;;;10.40;99.90;;;;;;4956724;29;20031;-95
2022/11/13 09:44:08;;;;;;;30.50;16.30;;;10.50;99.90;;;;;;4936633;29;20041;-95
2022/11/13 09:46:48;;;;;;;30.50;14.15;;;10.70;99.90;;;;;;4885459;29;20110;-94
2022/11/13 09:49:21;;;;;;;27.73;13.48;;;10.80;99.90;;;;;;4871773;29;20044;-93
2022/11/13 09:51:54;;;;;;;28.20;12.45;;;10.90;99.90;;;;;;4863858;29;20041;-93
2022/11/13 09:54:20;;;;;;;22.85;12.52;;;11.00;99.90;;;;;;4876950;29;20037;-95
2022/11/13 09:57:14;;;;;;;23.70;12.95;;;11.00;99.90;;;;;;4895716;29;20037;-95
2022/11/13 09:59:56;;;;;;;23.77;13.50;;;11.10;99.90;;;;;;4876325;29;20033;-95
2022/11/13 10:02:40;;;;;;;25.48;13.57;;;11.10;99.90;;;;;;4878472;29;20045;-96
2022/11/13 10:05:13;;;;;;;19.77;11.73;;;11.20;99.90;;;;;;4874758;29;20120;-96
2022/11/13 10:08:04;;;;;;;23.20;11.80;;;11.10;99.90;;;;;;4895721;29;20049;-96
2022/11/13 10:10:57;;;;;;;24.15;12.15;;;11.00;99.90;;;;;;4878913;29;20029;-96
2022/11/13 10:13:56;;;;;;;21.17;12.00;;;10.90;99.90;;;;;;4876245;29;20108;-96
2022/11/13 10:16:41;;;;;;;23.80;12.98;;;10.80;99.90;;;;;;4856909;29;20040;-95
2022/11/13 10:19:19;;;;;;;23.25;12.98;;;10.80;99.90;;;;;;4876696;29;20029;-96
2022/11/13 10:21:49;;;;;;;23.52;13.25;;;10.90;99.90;;;;;;4949326;29;20027;-95
2022/11/13 10:24:25;;;;;;;27.40;14.40;;;10.90;99.90;;;;;;4979894;28;20034;-95
2022/11/13 10:26:52;;;;;;;24.92;12.68;;;10.90;99.90;;;;;;4984082;28;20055;-96
2022/11/13 10:29:19;;;;;;;21.75;12.13;;;10.90;99.90;;;;;;4983893;28;20027;-96
2022/11/13 10:31:48;;;;;;;20.75;11.52;;;10.90;99.90;;;;;;4967647;29;20061;-96
2022/11/13 10:34:15;;;;;;;21.45;12.07;;;10.90;99.90;;;;;;4980642;28;20023;-95
2022/11/13 10:36:50;;;;;;;20.25;10.90;;;10.90;99.90;;;;;;4951823;29;20028;-94
2022/11/13 10:39:15;;;;;;;19.10;10.30;;;10.90;99.90;;;;;;4949902;29;20465;-96
2022/11/13 10:41:53;;;;;;;16.40;9.93;;;10.80;99.90;;;;;;4949208;29;20082;-96
2022/11/13 10:44:31;;;;;;;16.85;9.90;;;10.80;99.90;;;;;;4952374;29;20046;-96
2022/11/13 10:47:24;;;;;;;17.70;10.07;;;10.80;99.90;;;;;;4945508;29;20101;-94
2022/11/13 10:49:50;;;;;;;17.50;10.13;;;10.80;99.90;;;;;;4952112;29;20043;-94
2022/11/13 10:52:19;;;;;;;18.52;9.70;;;10.80;99.90;;;;;;4950305;29;20093;-95
2022/11/13 10:54:46;;;;;;;14.88;9.68;;;10.80;99.90;;;;;;4980992;28;20119;-95
2022/11/13 10:57:29;;;;;;;18.25;9.75;;;10.80;99.90;;;;;;4948615;29;20027;-94
2022/11/13 10:59:55;;;;;;;16.60;9.05;;;10.80;99.90;;;;;;4948187;29;20556;-95
2022/11/13 11:02:23;;;;;;;19.20;10.40;;;10.90;99.90;;;;;;4948433;29;20034;-95
2022/11/13 11:04:59;;;;;;;15.00;9.15;;;11.00;99.90;;;;;;4948404;29;20036;-96
2022/11/13 11:07:25;;;;;;;15.75;9.60;;;11.00;99.90;;;;;;4957654;28;20026;-93
2022/11/13 11:09:51;;;;;;;15.25;9.52;;;11.10;99.90;;;;;;4962036;28;20023;-94
2022/11/13 11:12:24;;;;;;;16.33;9.57;;;11.10;99.90;;;;;;4954042;29;20035;-95
2022/11/13 11:14:58;;;;;;;15.93;9.55;;;11.20;99.90;;;;;;4949040;29;20031;-95
2022/11/13 11:17:45;;;;;;;20.17;9.80;;;11.20;99.90;;;;;;4951931;29;20027;-95
2022/11/13 11:20:46;;;;;;;18.33;10.38;;;11.20;99.90;;;;;;4980970;28;20024;-96
2022/11/13 11:23:30;;;;;;;20.55;10.77;;;11.30;99.90;;;;;;4937617;29;20073;-95
2022/11/13 11:25:58;;;;;;;17.88;9.73;;;11.30;99.90;;;;;;4951740;29;20040;-96
2022/11/13 11:28:45;;;;;;;16.75;9.68;;;11.30;99.90;;;;;;4948788;29;20039;-94
2022/11/13 11:31:16;;;;;;;18.58;9.38;;;11.40;99.90;;;;;;4947274;29;20070;-96
2022/11/13 11:33:54;;;;;;;20.40;10.65;;;11.50;99.90;;;;;;4949879;29;20051;-95
2022/11/13 11:36:33;;;;;;;15.85;10.00;;;11.50;99.90;;;;;;4946352;29;20038;-95
2022/11/13 11:39:08;;;;;;;18.65;10.60;;;11.60;99.90;;;;;;4950640;29;20043;-95
2022/11/13 11:41:42;;;;;;;21.05;10.57;;;11.60;99.90;;;;;;4953648;29;20028;-96
2022/11/13 11:44:36;;;;;;;21.75;11.43;;;11.60;99.90;;;;;;4982354;28;20035;-95
2022/11/13 11:47:02;;;;;;;18.95;10.77;;;11.60;99.90;;;;;;4963945;29;20047;-95
2022/11/13 11:49:28;;;;;;;20.98;11.60;;;11.60;99.90;;;;;;4945455;29;20113;-95
2022/11/13 11:52:12;;;;;;;19.65;11.10;;;11.60;99.90;;;;;;4946453;29;20047;-95
2022/11/13 11:54:56;;;;;;;20.45;11.43;;;11.60;99.90;;;;;;4949115;29;20393;-96
2022/11/13 11:57:48;;;;;;;19.55;10.80;;;11.60;99.90;;;;;;4954393;29;20019;-94
2022/11/13 12:00:20;;;;;;;22.15;11.90;;;11.70;99.90;;;;;;4954995;29;20038;-96
2022/11/13 12:02:54;;;;;;;19.58;11.10;;;11.70;99.90;;;;;;4952998;29;20038;-93
2022/11/13 12:05:28;;;;;;;21.65;11.40;;;11.70;99.90;;;;;;4958796;29;20031;-94
2022/11/13 12:08:14;;;;;;;21.25;12.50;;;11.70;99.90;;;;;;4989406;28;20041;-93
2022/11/13 12:10:55;;;;;;;22.15;12.75;;;11.60;99.90;;;;;;4958397;29;20054;-92
2022/11/13 12:13:37;;;;;;;;;;;11.70;99.90;;;;;;4959147;29;20027;-94
2022/11/13 12:16:14;;;;;;;20.17;10.65;;;11.70;99.90;;;;;;4942984;29;19945;-94
2022/11/13 12:18:52;;;;;;;18.33;9.77;;;11.70;99.90;;;;;;4981438;28;20086;-95
2022/11/13 12:21:36;;;;;;;20.60;10.55;;;11.80;99.90;;;;;;4951156;29;20031;-93
2022/11/13 12:24:05;;;;;;;20.73;12.02;;;11.70;99.90;;;;;;4950409;29;20039;-94
2022/11/13 12:26:48;;;;;;;19.67;11.65;;;11.70;99.90;;;;;;4948742;29;20027;-94
2022/11/13 12:29:23;;;;;;;20.75;11.70;;;11.70;99.90;;;;;;4947041;29;20027;-95
2022/11/13 12:32:20;;;;;;;20.83;11.68;;;11.70;99.90;;;;;;4945611;29;20046;-95
2022/11/13 12:34:52;;;;;;;24.52;12.73;;;11.70;99.90;;;;;;4973326;28;20381;-92
2022/11/13 12:37:50;;;;;;;20.80;12.13;;;11.80;99.90;;;;;;4939987;28;20074;-95
2022/11/13 12:40:38;;;;;;;22.70;11.57;;;11.80;99.90;;;;;;4950178;28;20098;-95
2022/11/13 12:43:09;;;;;;;23.08;11.70;;;11.80;99.90;;;;;;4972364;29;20046;-94